Time;durP1;ratioP1;P1;durP2;ratioP2;P2;SDS_P1;SDS_P2;PMS_P1;PMS_P2;Temp;Humidity;BMP_temperature;BMP_pressure;BME280_temperature;BME280_humidity;BME280_pressure;Samples;Min_cycle;Max_cycle;Signal;HPM_P1;HPM_P2
2023/08/07 00:01:32;;;;;;;4.03;1.80;;;;;;;12.75;100.00;101032.47;5034404;28;20454;-96
2023/08/07 00:04:01;;;;;;;5.25;1.52;;;;;;;12.91;100.00;101041.94;5021958;28;20013;-96
2023/08/07 00:06:26;;;;;;;6.22;2.00;;;;;;;12.82;100.00;101033.75;5080993;23;20053;-96
2023/08/07 00:08:52;;;;;;;5.15;1.52;;;;;;;12.77;100.00;101040.97;5117629;23;20285;-95
2023/08/07 00:11:17;;;;;;;2.38;1.80;;;;;;;12.70;100.00;101037.06;5016186;28;20081;-96
2023/08/07 00:13:43;;;;;;;4.38;1.83;;;;;;;12.70;100.00;101034.47;5007148;28;20030;-96
2023/08/07 00:16:10;;;;;;;5.57;1.50;;;;;;;12.70;100.00;101031.88;5009346;28;20049;-96
2023/08/07 00:18:41;;;;;;;3.70;1.35;;;;;;;12.80;100.00;101035.63;5019296;28;20025;-96
2023/08/07 00:21:08;;;;;;;6.60;2.10;;;;;;;12.77;100.00;101028.00;5051180;28;20025;-96
2023/08/07 00:23:36;;;;;;;3.25;1.50;;;;;;;12.73;100.00;101029.13;5031158;28;20037;-96
2023/08/07 00:26:05;;;;;;;5.97;1.80;;;;;;;12.75;100.00;101032.47;5022968;28;20025;-96
2023/08/07 00:28:30;;;;;;;4.05;1.73;;;;;;;12.75;100.00;101029.88;5021858;28;20040;-96
2023/08/07 00:34:17;;;;;;;5.45;1.75;;;;;;;12.66;100.00;101025.22;5243212;22;20052;-95
2023/08/07 00:55:03;;;;;;;4.30;2.00;;;;;;;12.15;100.00;101004.75;5047276;28;20056;-96
2023/08/07 00:57:33;;;;;;;4.63;2.15;;;;;;;12.22;100.00;101005.25;5034078;28;20025;-96
2023/08/07 01:00:00;;;;;;;6.30;2.22;;;;;;;12.33;100.00;101007.22;5022581;28;20021;-96
2023/08/07 01:02:28;;;;;;;5.22;2.08;;;;;;;12.34;100.00;101009.75;5306694;23;20065;-96
2023/08/07 01:04:54;;;;;;;3.45;1.60;;;;;;;12.32;100.00;101003.81;5031014;28;20104;-96
2023/08/07 01:07:19;;;;;;;9.32;2.40;;;;;;;12.33;100.00;101002.88;5029359;28;20032;-96
2023/08/07 01:09:45;;;;;;;7.97;2.58;;;;;;;12.25;100.00;100996.47;5020757;28;20038;-96
2023/08/07 01:12:15;;;;;;;5.40;1.67;;;;;;;12.23;100.00;101004.31;5009247;28;20522;-96
2023/08/07 01:14:58;;;;;;;7.10;1.75;;;;;;;12.16;100.00;101002.97;5012457;28;20026;-96
2023/08/07 01:17:26;;;;;;;3.40;1.60;;;;;;;12.26;100.00;101005.91;5018368;28;20030;-96
2023/08/07 01:19:52;;;;;;;8.85;2.10;;;;;;;12.18;100.00;101006.31;4985092;28;20104;-96
2023/08/07 01:22:19;;;;;;;7.65;1.80;;;;;;;12.10;100.00;101000.75;5000704;28;20037;-96
2023/08/07 01:24:47;;;;;;;6.00;1.98;;;;;;;12.11;100.00;101007.59;5018001;28;20030;-96
2023/08/07 01:27:20;;;;;;;5.50;2.05;;;;;;;12.19;100.00;101013.16;5006601;28;20030;-96
2023/08/07 01:30:37;;;;;;;10.48;2.17;;;;;;;12.25;100.00;101015.41;5033355;28;20118;-96
2023/08/07 01:33:17;;;;;;;5.38;1.80;;;;;;;12.09;100.00;101007.66;5029660;28;20030;-96
2023/08/07 01:35:46;;;;;;;14.57;2.45;;;;;;;12.06;100.00;101015.59;5031733;28;20120;-96
2023/08/07 01:38:13;;;;;;;4.78;2.00;;;;;;;11.95;100.00;101016.19;5029829;28;20085;-96
2023/08/07 01:40:40;;;;;;;7.50;1.98;;;;;;;12.05;100.00;101013.09;5034055;28;20021;-95
2023/08/07 01:43:07;;;;;;;5.07;1.60;;;;;;;12.07;100.00;101009.50;5026549;28;20030;-96
2023/08/07 01:45:34;;;;;;;3.67;1.80;;;;;;;11.99;100.00;101009.91;5001277;28;20097;-96
2023/08/07 01:48:00;;;;;;;4.20;1.27;;;;;;;11.91;100.00;101001.72;5011849;28;20554;-96
2023/08/07 01:50:26;;;;;;;3.72;1.70;;;;;;;11.87;100.00;101010.56;5015361;28;20005;-96
2023/08/07 01:52:52;;;;;;;3.72;1.52;;;;;;;11.79;100.00;101003.19;5028375;28;20032;-96
2023/08/07 01:55:20;;;;;;;4.47;1.70;;;;;;;11.70;100.00;100998.50;5026307;28;20026;-96
2023/08/07 01:57:46;;;;;;;4.63;1.60;;;;;;;11.57;100.00;101003.50;5025366;28;20092;-96
2023/08/07 02:00:11;;;;;;;5.85;1.50;;;;;;;11.59;100.00;101005.19;5009461;28;20033;-96
2023/08/07 02:02:38;;;;;;;3.47;1.73;;;;;;;11.54;100.00;101014.00;5011658;28;20120;-96
2023/08/07 02:05:04;;;;;;;8.68;1.92;;;;;;;11.49;100.00;101013.41;5030276;28;20096;-96
2023/08/07 02:07:30;;;;;;;6.88;1.77;;;;;;;11.38;100.00;101013.13;5023466;28;20041;-96
2023/08/07 02:12:32;;;;;;;4.47;2.25;;;;;;;11.52;100.00;101010.66;5116703;23;20419;-96
2023/08/07 02:15:24;;;;;;;6.53;2.22;;;;;;;11.65;100.00;101004.84;5038484;28;20040;-96
2023/08/07 02:17:53;;;;;;;6.63;2.20;;;;;;;11.67;100.00;101000.44;5042114;28;20017;-96
2023/08/07 02:20:23;;;;;;;8.20;2.80;;;;;;;11.72;100.00;101003.59;5022010;28;20029;-96
2023/08/07 02:31:12;;;;;;;8.70;2.95;;;;;;;11.79;100.00;101016.13;5588683;23;20064;-96
2023/08/07 02:41:24;;;;;;;6.93;3.15;;;;;;;11.51;100.00;101016.75;5682796;23;20050;-96
2023/08/07 02:43:50;;;;;;;6.88;2.38;;;;;;;11.50;100.00;101017.66;5035395;28;20030;-96
2023/08/07 02:46:16;;;;;;;5.03;2.00;;;;;;;11.44;100.00;101007.66;5030699;28;20030;-96
2023/08/07 02:48:44;;;;;;;7.55;2.22;;;;;;;11.41;100.00;101023.31;5026622;28;20029;-96
2023/08/07 02:51:09;;;;;;;10.05;2.83;;;;;;;11.28;100.00;101017.94;5021874;28;20034;-94
2023/08/07 02:53:35;;;;;;;8.68;2.55;;;;;;;11.31;100.00;101022.97;5016644;28;20041;-95
2023/08/07 02:56:00;;;;;;;6.45;2.45;;;;;;;11.34;100.00;101021.97;5016478;28;20532;-95
2023/08/07 02:58:26;;;;;;;7.75;2.60;;;;;;;11.31;100.00;101019.53;5012730;28;20026;-94
2023/08/07 03:00:51;;;;;;;6.72;2.25;;;;;;;11.51;100.00;101018.47;4996853;28;20091;-94
2023/08/07 03:03:16;;;;;;;7.43;2.70;;;;;;;11.48;100.00;101014.31;4996621;28;20030;-94
2023/08/07 03:05:50;;;;;;;8.52;2.50;;;;;;;11.37;100.00;101011.47;5002124;28;20028;-96
2023/08/07 03:08:16;;;;;;;6.75;2.38;;;;;;;11.51;100.00;101019.34;5023976;28;20380;-96
2023/08/07 03:10:41;;;;;;;5.75;2.30;;;;;;;11.51;100.00;101014.16;5020553;28;20021;-95
2023/08/07 03:13:06;;;;;;;7.47;2.17;;;;;;;11.44;100.00;101017.16;5017151;28;20470;-96
2023/08/07 03:15:32;;;;;;;9.60;2.80;;;;;;;11.40;100.00;101011.28;5012135;28;20022;-94
2023/08/07 03:17:57;;;;;;;9.00;2.72;;;;;;;11.38;100.00;101012.28;5016022;28;20075;-95
2023/08/07 03:20:22;;;;;;;10.23;2.70;;;;;;;11.41;100.00;101022.47;5016824;28;20025;-95
2023/08/07 03:22:48;;;;;;;4.70;1.90;;;;;;;11.28;100.00;101019.69;5004774;28;20121;-94
2023/08/07 03:25:13;;;;;;;7.53;1.90;;;;;;;11.21;100.00;101007.97;5016755;28;20045;-95
2023/08/07 03:27:39;;;;;;;7.47;2.10;;;;;;;11.19;100.00;101007.22;5007786;28;20033;-94
2023/08/07 03:30:05;;;;;;;4.72;2.20;;;;;;;11.12;100.00;101007.56;4997297;28;20028;-94
2023/08/07 03:32:30;;;;;;;3.38;1.63;;;;;;;10.99;100.00;101006.47;5001307;28;20037;-96
2023/08/07 03:34:55;;;;;;;5.88;2.15;;;;;;;11.09;100.00;101006.84;5016225;28;20021;-95
2023/08/07 03:37:21;;;;;;;5.25;1.85;;;;;;;11.08;100.00;101005.19;5016852;28;20025;-96
2023/08/07 03:39:47;;;;;;;5.32;1.45;;;;;;;11.06;100.00;101010.44;5018598;28;20029;-96
2023/08/07 03:42:15;;;;;;;3.50;1.50;;;;;;;11.01;100.00;101009.81;5018374;28;20025;-96
2023/08/07 03:44:40;;;;;;;3.35;1.40;;;;;;;11.01;100.00;101009.00;5012501;28;20025;-95
2023/08/07 03:47:06;;;;;;;5.10;1.70;;;;;;;11.01;100.00;100998.66;5006460;28;20172;-96
2023/08/07 03:49:31;;;;;;;5.57;1.50;;;;;;;10.99;100.00;101001.31;5013392;28;20025;-96
2023/08/07 03:51:58;;;;;;;5.20;1.45;;;;;;;11.00;100.00;101000.41;5013899;28;20507;-96
2023/08/07 03:54:24;;;;;;;3.50;1.45;;;;;;;10.98;100.00;100997.06;5019209;28;20022;-96
2023/08/07 03:56:51;;;;;;;6.45;1.40;;;;;;;10.99;100.00;101006.47;4999961;28;20024;-96
2023/08/07 03:59:16;;;;;;;4.07;1.83;;;;;;;11.06;100.00;100996.69;5015405;28;20055;-95
2023/08/07 04:01:42;;;;;;;3.10;1.40;;;;;;;10.95;100.00;100999.81;5007541;28;20038;-95
2023/08/07 04:04:07;;;;;;;3.83;1.45;;;;;;;11.05;100.00;101006.19;5004069;28;20022;-95
2023/08/07 04:06:33;;;;;;;6.53;2.00;;;;;;;11.01;100.00;100998.66;5003497;28;20514;-95
2023/08/07 04:08:58;;;;;;;5.20;1.75;;;;;;;10.99;100.00;100998.72;5004581;28;20068;-96
2023/08/07 04:11:24;;;;;;;6.00;1.52;;;;;;;11.03;100.00;100995.09;5015644;28;20036;-95
2023/08/07 04:13:50;;;;;;;5.10;1.63;;;;;;;10.96;100.00;100985.97;5017725;28;20365;-96
2023/08/07 04:21:54;;;;;;;4.15;1.70;;;;;;;10.77;100.00;100987.81;5199049;23;20124;-96
2023/08/07 04:24:20;;;;;;;5.68;2.03;;;;;;;10.79;100.00;100993.75;5051524;23;20049;-96
2023/08/07 04:26:48;;;;;;;2.00;1.40;;;;;;;10.76;100.00;100986.97;5032914;28;20057;-96
2023/08/07 04:29:17;;;;;;;3.85;1.50;;;;;;;10.71;100.00;100989.78;5053748;28;20005;-96
2023/08/07 04:31:47;;;;;;;2.63;1.30;;;;;;;10.70;100.00;100990.72;5057763;23;21208;-96
2023/08/07 04:34:24;;;;;;;4.07;1.65;;;;;;;10.70;100.00;100990.72;5020112;28;20040;-96
2023/08/07 04:37:11;;;;;;;2.90;1.35;;;;;;;10.66;100.00;100988.34;5021719;28;20037;-96
2023/08/07 04:39:41;;;;;;;2.65;1.50;;;;;;;10.76;100.00;100999.06;5107291;23;20134;-96
2023/08/07 04:42:06;;;;;;;3.33;1.50;;;;;;;10.73;100.00;100999.19;5019842;28;20049;-96
2023/08/07 04:44:32;;;;;;;9.05;2.72;;;;;;;10.63;100.00;101004.81;5008614;28;20041;-96
2023/08/07 04:46:57;;;;;;;2.45;1.40;;;;;;;10.59;100.00;101005.88;5014529;28;20113;-96
2023/08/07 04:49:23;;;;;;;4.30;1.67;;;;;;;10.57;100.00;101010.25;5010309;28;20025;-96
2023/08/07 04:51:48;;;;;;;2.67;1.17;;;;;;;10.54;100.00;100997.53;5009276;28;20021;-96
2023/08/07 04:54:13;;;;;;;3.28;1.30;;;;;;;10.55;100.00;100998.34;5023220;28;20021;-96
2023/08/07 04:56:39;;;;;;;3.22;1.38;;;;;;;10.53;100.00;101007.91;5006987;28;20076;-96
2023/08/07 04:59:04;;;;;;;3.92;1.50;;;;;;;10.53;100.00;101005.31;5018700;28;20052;-96
2023/08/07 05:01:29;;;;;;;4.55;1.58;;;;;;;10.54;100.00;101009.59;5020203;28;20035;-96
2023/08/07 05:03:55;;;;;;;3.67;1.60;;;;;;;10.53;100.00;101013.06;5020130;28;20026;-96
2023/08/07 05:06:20;;;;;;;3.22;1.35;;;;;;;10.54;100.00;101017.34;5019615;28;20032;-96
2023/08/07 05:08:45;;;;;;;2.85;1.45;;;;;;;10.45;100.00;101010.84;5019110;28;20113;-96
2023/08/07 05:11:11;;;;;;;3.92;1.30;;;;;;;10.44;100.00;101014.34;5005550;28;20029;-96
2023/08/07 05:13:36;;;;;;;3.28;1.45;;;;;;;10.44;100.00;101014.34;4999571;28;20018;-96
2023/08/07 05:16:01;;;;;;;2.95;1.40;;;;;;;10.43;100.00;101010.09;5015559;28;20515;-96
2023/08/07 05:18:27;;;;;;;2.45;1.17;;;;;;;10.42;100.00;101011.84;5019206;28;20088;-96
2023/08/07 05:20:54;;;;;;;4.55;1.30;;;;;;;10.33;100.00;101008.84;5071834;23;20100;-96
2023/08/07 05:23:20;;;;;;;2.78;1.55;;;;;;;10.25;100.00;101022.91;5018181;28;20090;-96
2023/08/07 05:25:48;;;;;;;4.47;2.00;;;;;;;10.26;100.00;101022.00;5010677;28;20123;-96
2023/08/07 05:28:13;;;;;;;3.78;1.33;;;;;;;10.35;100.00;101019.94;5007204;28;20030;-96
2023/08/07 05:30:39;;;;;;;4.55;2.03;;;;;;;10.44;100.00;101014.34;5003617;28;20026;-96
2023/08/07 05:33:04;;;;;;;3.35;1.70;;;;;;;10.49;100.00;101010.63;5020841;28;20028;-96
2023/08/07 05:35:29;;;;;;;6.28;2.30;;;;;;;10.59;100.00;101015.38;5025751;28;20092;-96
2023/08/07 05:37:55;;;;;;;4.15;1.75;;;;;;;10.52;100.00;101012.25;5006252;28;20049;-96
2023/08/07 05:40:20;;;;;;;3.03;1.55;;;;;;;10.52;100.00;101009.66;5008180;28;20109;-96
2023/08/07 05:42:46;;;;;;;7.78;2.00;;;;;;;10.56;100.00;101012.91;5001869;28;20026;-96
2023/08/07 05:45:11;;;;;;;6.15;1.88;;;;;;;10.57;100.00;101014.59;5002263;28;20025;-96
2023/08/07 05:47:43;;;;;;;4.75;1.75;;;;;;;10.68;100.00;101026.09;5032874;28;20021;-96
2023/08/07 05:50:13;;;;;;;3.08;1.63;;;;;;;10.80;100.00;101026.38;5021579;28;20033;-96
2023/08/07 05:52:38;;;;;;;5.38;1.88;;;;;;;10.87;100.00;101031.16;5026953;28;20028;-96
2023/08/07 05:55:04;;;;;;;3.95;1.52;;;;;;;10.97;100.00;101023.78;5000632;28;20026;-96
2023/08/07 05:57:29;;;;;;;3.55;1.83;;;;;;;11.05;100.00;101021.69;5022972;28;20017;-96
2023/08/07 05:59:55;;;;;;;7.95;1.75;;;;;;;11.12;100.00;101017.88;5097448;23;20046;-96
2023/08/07 07:20:33;;;;;;;4.10;1.40;;;;;;;27.08;41.87;101080.41;5958690;23;20040;-96
2023/08/07 07:22:59;;;;;;;3.50;0.90;;;;;;;27.35;42.49;101076.34;5019979;28;20037;-96
2023/08/07 07:25:25;;;;;;;2.60;0.88;;;;;;;25.76;44.12;101084.94;5021998;28;20017;-96
2023/08/07 07:36:22;;;;;;;3.30;0.82;;;;;;;24.91;46.92;101075.69;5963507;23;20903;-96
2023/08/07 07:38:48;;;;;;;5.00;1.38;;;;;;;23.83;49.96;101065.13;5038163;28;20042;-96
2023/08/07 07:46:26;;;;;;;2.50;1.03;;;;;;;26.12;43.39;101073.88;4994154;28;20031;-96
2023/08/07 07:49:14;;;;;;;3.75;1.27;;;;;;;26.17;44.23;101068.88;4995680;28;20038;-96
2023/08/07 07:51:46;;;;;;;4.88;1.35;;;;;;;25.33;46.04;101077.28;4996313;28;20033;-96
2023/08/07 07:54:16;;;;;;;1.73;0.70;;;;;;;25.60;45.92;101081.38;4987714;28;20043;-96
2023/08/07 07:56:43;;;;;;;3.65;1.00;;;;;;;25.38;45.67;101079.44;4972750;28;20501;-96
2023/08/07 07:59:09;;;;;;;6.68;1.08;;;;;;;24.81;47.36;101085.59;4969877;28;20031;-96
2023/08/07 08:01:35;;;;;;;2.78;1.10;;;;;;;24.66;48.10;101084.63;4968257;28;20050;-96
2023/08/07 08:04:01;;;;;;;5.97;1.67;;;;;;;23.86;49.23;101096.44;4965233;28;20024;-96
2023/08/07 08:06:27;;;;;;;4.47;1.10;;;;;;;24.32;49.02;101086.34;4965463;28;20055;-96
2023/08/07 08:09:16;;;;;;;4.95;1.58;;;;;;;25.57;46.16;101086.16;4968338;29;20098;-96
2023/08/07 08:12:34;;;;;;;3.42;1.20;;;;;;;25.47;46.16;101082.88;4979163;28;20023;-96
2023/08/07 08:20:26;;;;;;;4.07;0.82;;;;;;;23.64;49.08;101089.06;5062967;22;20042;-96
2023/08/07 08:22:52;;;;;;;1.77;0.80;;;;;;;23.59;50.16;101094.00;5195756;22;20107;-96
2023/08/07 08:25:17;;;;;;;3.85;1.10;;;;;;;23.25;50.19;101089.53;5029764;28;20046;-96
2023/08/07 08:27:46;;;;;;;2.55;0.88;;;;;;;24.63;48.51;101083.13;5130700;22;20033;-96
2023/08/07 08:40:39;;;;;;;5.83;1.23;;;;;;;24.26;47.19;101068.56;5720478;22;20021;-96
2023/08/07 08:53:29;;;;;;;3.22;0.90;;;;;;;26.04;43.17;101067.63;5032683;22;20055;-96
2023/08/07 09:01:06;;;;;;;2.53;0.60;;;;;;;26.11;42.73;101072.22;5448246;22;20078;-96
2023/08/07 09:13:55;;;;;;;3.35;0.52;;;;;;;27.00;40.46;101051.34;4996750;28;20109;-96
2023/08/07 09:16:25;;;;;;;2.28;0.60;;;;;;;26.84;41.25;101058.44;5003560;28;20053;-96
2023/08/07 09:18:51;;;;;;;3.90;0.70;;;;;;;27.04;39.45;101047.31;5002703;28;20093;-96
2023/08/07 09:21:17;;;;;;;1.83;0.30;;;;;;;27.02;40.03;101054.63;5006840;28;20035;-96
2023/08/07 09:23:43;;;;;;;4.07;1.33;;;;;;;27.07;38.80;101046.97;4996170;28;20030;-96
2023/08/07 09:26:12;;;;;;;3.50;0.90;;;;;;;26.85;39.99;101043.41;4994644;28;20023;-96
2023/08/07 09:28:38;;;;;;;4.18;0.47;;;;;;;27.53;38.26;101049.44;4974149;28;20061;-96
2023/08/07 09:31:06;;;;;;;2.80;0.68;;;;;;;27.55;38.39;101050.09;4986433;28;20550;-96
2023/08/07 09:33:31;;;;;;;6.60;0.60;;;;;;;27.67;39.01;101055.75;4991282;28;20030;-95
2023/08/07 09:35:58;;;;;;;4.47;0.77;;;;;;;26.52;39.44;101043.63;4993407;28;20049;-95
2023/08/07 09:38:28;;;;;;;1.88;0.65;;;;;;;26.97;40.24;101034.00;4995173;28;20033;-96
2023/08/07 09:40:59;;;;;;;2.65;0.40;;;;;;;27.42;39.04;101034.03;5002476;28;20030;-96
2023/08/07 09:43:28;;;;;;;1.67;0.57;;;;;;;27.15;38.71;101027.53;5285383;23;20026;-96
2023/08/07 09:46:02;;;;;;;3.45;0.75;;;;;;;26.63;38.29;101029.19;5125398;23;22541;-96
2023/08/07 09:48:28;;;;;;;3.08;0.50;;;;;;;25.96;39.59;101030.63;4977848;28;20027;-93
2023/08/07 09:50:54;;;;;;;2.95;0.43;;;;;;;25.34;42.25;101030.56;4973848;28;20370;-95
2023/08/07 09:53:26;;;;;;;2.10;0.60;;;;;;;24.47;43.46;101035.63;4973856;28;20023;-92
2023/08/07 09:55:55;;;;;;;1.80;0.75;;;;;;;24.34;43.90;101036.91;4975073;28;20046;-94
2023/08/07 09:58:22;;;;;;;6.00;2.50;;;;;;;23.64;43.60;101029.28;4975231;28;20114;-94
2023/08/07 10:00:48;;;;;;;2.22;0.82;;;;;;;23.77;44.57;101023.59;4973279;28;20030;-95
2023/08/07 10:03:14;;;;;;;3.13;1.00;;;;;;;23.58;47.52;101015.91;4974610;28;20104;-94
2023/08/07 10:05:42;;;;;;;3.10;0.70;;;;;;;23.57;47.09;101012.44;4971923;28;20506;-94
2023/08/07 10:08:07;;;;;;;5.32;0.68;;;;;;;23.88;46.42;101018.03;4975541;28;20035;-94
2023/08/07 10:10:34;;;;;;;3.22;0.73;;;;;;;23.84;46.48;101024.59;4972689;28;20557;-93
2023/08/07 10:13:01;;;;;;;2.72;0.80;;;;;;;24.08;45.33;101023.00;4974288;28;20023;-93
2023/08/07 10:15:27;;;;;;;3.45;0.50;;;;;;;23.81;45.09;101017.00;4972371;28;20433;-94
2023/08/07 10:17:53;;;;;;;5.20;0.95;;;;;;;23.64;45.77;101016.09;4975011;28;20074;-95
2023/08/07 10:20:20;;;;;;;5.30;0.80;;;;;;;23.21;47.52;101020.50;4973630;28;20473;-94
2023/08/07 10:22:46;;;;;;;2.60;0.85;;;;;;;22.98;48.16;101022.84;4973459;28;20027;-94
2023/08/07 10:25:11;;;;;;;2.08;0.73;;;;;;;23.11;46.89;101026.88;4973282;28;20099;-95
2023/08/07 10:27:39;;;;;;;3.53;0.93;;;;;;;23.38;48.23;101031.97;4972604;28;20038;-95
2023/08/07 10:30:09;;;;;;;2.08;0.68;;;;;;;23.75;45.62;101030.84;4975698;28;20031;-92
2023/08/07 10:32:35;;;;;;;2.05;0.75;;;;;;;23.53;45.52;101015.56;4975085;28;20035;-95
2023/08/07 10:35:05;;;;;;;5.57;1.05;;;;;;;24.33;44.76;101018.59;4971231;28;20090;-93
2023/08/07 10:37:41;;;;;;;2.80;0.63;;;;;;;24.42;44.98;101017.59;4981240;28;20117;-94
2023/08/07 10:40:11;;;;;;;2.95;0.65;;;;;;;24.49;44.57;101018.63;5010860;23;20046;-96
2023/08/07 10:42:54;;;;;;;1.35;0.60;;;;;;;24.13;44.74;101012.78;4993576;28;20058;-96
2023/08/07 10:45:22;;;;;;;2.20;0.73;;;;;;;23.71;45.35;101009.22;4977071;28;20034;-96
2023/08/07 10:48:07;;;;;;;2.47;0.75;;;;;;;24.52;44.77;101004.28;4980137;28;20030;-96
2023/08/07 10:50:53;;;;;;;3.30;0.70;;;;;;;24.94;43.53;101006.69;4965237;28;20081;-96
2023/08/07 10:53:42;;;;;;;3.08;0.60;;;;;;;25.53;43.95;101006.38;4973292;28;20027;-93
2023/08/07 10:56:11;;;;;;;2.60;0.55;;;;;;;25.65;42.31;101000.69;4971302;28;20070;-95
2023/08/07 10:58:38;;;;;;;2.38;0.65;;;;;;;25.87;43.18;100996.47;4973653;28;20102;-96
2023/08/07 11:01:20;;;;;;;2.40;0.60;;;;;;;26.21;41.52;100993.41;4963436;28;20066;-96
2023/08/07 11:03:53;;;;;;;2.88;0.95;;;;;;;25.67;41.99;100988.94;4973326;28;20050;-95
2023/08/07 11:06:26;;;;;;;6.38;0.65;;;;;;;24.87;44.49;100986.41;4982489;28;20485;-95
2023/08/07 11:08:52;;;;;;;2.92;0.90;;;;;;;24.54;44.28;100994.38;4975438;28;20049;-96
2023/08/07 11:11:23;;;;;;;3.25;0.73;;;;;;;24.39;44.09;100996.00;4974055;28;20034;-96
2023/08/07 11:13:48;;;;;;;2.75;1.33;;;;;;;24.18;44.53;100993.84;4975599;28;20086;-96
2023/08/07 11:16:17;;;;;;;2.28;0.75;;;;;;;24.42;44.24;100996.50;4989032;28;20460;-96
2023/08/07 11:18:51;;;;;;;4.22;0.77;;;;;;;24.65;44.14;100983.47;4977043;28;20027;-96
2023/08/07 11:21:16;;;;;;;3.45;0.55;;;;;;;25.03;43.67;100982.91;4981156;28;20047;-96
2023/08/07 11:23:49;;;;;;;2.28;0.98;;;;;;;25.52;43.45;100982.75;4978531;28;20023;-96
2023/08/07 11:26:21;;;;;;;3.20;0.93;;;;;;;25.92;45.29;100979.09;4972902;28;20031;-96
2023/08/07 11:28:49;;;;;;;2.58;0.80;;;;;;;25.91;43.16;100972.16;4958799;29;20059;-96
2023/08/07 11:31:14;;;;;;;3.90;0.80;;;;;;;25.98;42.82;100966.97;4970664;28;20023;-96
2023/08/07 11:33:41;;;;;;;2.42;0.70;;;;;;;25.59;43.39;100973.13;4977030;28;20109;-95
2023/08/07 11:36:13;;;;;;;2.72;0.82;;;;;;;26.19;42.42;100974.25;4975048;28;20523;-96
2023/08/07 11:38:44;;;;;;;3.20;0.57;;;;;;;26.51;41.39;100959.09;4955910;29;20027;-95
2023/08/07 11:41:13;;;;;;;2.75;0.52;;;;;;;26.79;41.44;100964.66;4968534;28;20058;-94
2023/08/07 11:43:40;;;;;;;3.00;0.90;;;;;;;26.95;37.36;100968.97;4974740;28;20504;-94
2023/08/07 11:46:11;;;;;;;2.83;1.05;;;;;;;26.69;39.26;100972.84;4972736;28;20022;-96
2023/08/07 11:48:54;;;;;;;1.93;0.43;;;;;;;26.89;39.57;100970.50;4978433;28;20027;-96
2023/08/07 11:51:20;;;;;;;3.30;0.52;;;;;;;26.00;39.94;100989.63;4976442;28;20022;-96
2023/08/07 11:53:45;;;;;;;2.03;0.70;;;;;;;25.59;41.38;100971.31;4975214;28;20035;-96
2023/08/07 11:56:18;;;;;;;2.60;0.77;;;;;;;25.50;42.56;100971.53;5156827;23;20013;-96
2023/08/07 11:58:46;;;;;;;5.70;1.08;;;;;;;25.93;41.98;100964.88;4977425;28;20030;-95
2023/08/07 12:01:20;;;;;;;2.63;0.77;;;;;;;25.69;43.09;100965.00;4974866;28;20461;-96
2023/08/07 12:03:57;;;;;;;14.85;1.08;;;;;;;25.42;43.21;100972.41;5036983;23;20029;-96
2023/08/07 12:06:25;;;;;;;3.65;0.80;;;;;;;25.77;42.72;100960.47;4975158;28;20031;-95
2023/08/07 12:08:55;;;;;;;4.63;0.93;;;;;;;25.78;42.70;100958.66;4972237;28;20077;-94
2023/08/07 12:11:21;;;;;;;2.75;0.77;;;;;;;26.37;41.65;100944.84;4971870;28;20030;-95
2023/08/07 12:13:53;;;;;;;3.92;1.00;;;;;;;26.29;42.39;100953.69;4988344;28;20101;-96
2023/08/07 12:16:19;;;;;;;3.45;0.60;;;;;;;25.99;40.66;100950.09;4971246;28;20035;-94
2023/08/07 12:18:45;;;;;;;4.75;1.30;;;;;;;26.20;41.11;100954.75;4972973;28;20033;-94
2023/08/07 12:21:14;;;;;;;4.60;0.98;;;;;;;26.30;40.83;100947.38;4974593;28;20034;-94
2023/08/07 12:23:40;;;;;;;1.70;0.40;;;;;;;26.45;41.25;100942.09;4971601;28;20026;-94
2023/08/07 12:26:06;;;;;;;4.65;0.80;;;;;;;26.45;40.36;100955.34;4972195;28;20489;-95
2023/08/07 12:28:33;;;;;;;4.75;0.82;;;;;;;25.97;39.25;100947.66;4969772;28;20069;-93
2023/08/07 12:30:58;;;;;;;2.92;1.08;;;;;;;26.63;37.49;100944.47;4971543;28;20030;-95
2023/08/07 12:33:23;;;;;;;4.57;1.48;;;;;;;26.52;39.01;100931.63;4971319;28;20489;-95
2023/08/07 12:35:49;;;;;;;4.13;0.77;;;;;;;26.29;40.27;100947.53;4968215;28;20069;-94
2023/08/07 12:38:14;;;;;;;5.05;0.90;;;;;;;26.66;39.95;100936.16;4972338;28;20096;-95
2023/08/07 12:40:41;;;;;;;4.05;0.68;;;;;;;26.70;39.15;100950.66;4970307;28;20033;-94
2023/08/07 12:43:07;;;;;;;4.80;0.60;;;;;;;26.65;41.02;100943.28;4973584;28;20058;-93
2023/08/07 12:45:33;;;;;;;3.42;0.70;;;;;;;27.05;39.21;100941.16;4973525;28;20592;-94
2023/08/07 12:47:59;;;;;;;2.92;0.70;;;;;;;27.47;36.76;100937.00;4972806;28;20062;-94
2023/08/07 12:50:25;;;;;;;2.88;0.60;;;;;;;27.04;38.61;100941.34;4972532;28;20071;-95
2023/08/07 12:52:50;;;;;;;1.98;0.80;;;;;;;25.90;38.27;100944.06;4972940;28;20067;-95
2023/08/07 12:55:16;;;;;;;7.85;0.77;;;;;;;25.41;38.52;100954.91;4972946;28;20093;-95
2023/08/07 12:57:45;;;;;;;2.20;0.60;;;;;;;25.30;38.92;100942.06;4973022;28;20038;-94
2023/08/07 13:00:14;;;;;;;3.40;0.68;;;;;;;24.95;40.55;100942.34;4972143;28;20042;-96
2023/08/07 13:02:47;;;;;;;2.55;0.60;;;;;;;24.43;40.38;100949.81;4973092;28;20050;-95
2023/08/07 13:05:14;;;;;;;3.42;0.95;;;;;;;24.22;41.74;100943.25;4971696;28;20073;-95
2023/08/07 13:07:39;;;;;;;2.03;0.50;;;;;;;24.42;40.91;100938.44;4971737;28;20008;-94
2023/08/07 13:10:07;;;;;;;4.40;0.77;;;;;;;23.83;42.78;100949.16;4977136;28;20110;-94
2023/08/07 13:12:36;;;;;;;3.13;1.17;;;;;;;24.03;42.16;100951.47;4976633;28;20125;-94
2023/08/07 13:15:02;;;;;;;2.38;0.60;;;;;;;23.99;41.50;100940.41;4975862;28;20031;-95
2023/08/07 13:17:28;;;;;;;2.13;0.55;;;;;;;23.54;41.47;100952.16;4974013;28;20253;-93
2023/08/07 13:19:53;;;;;;;3.08;0.70;;;;;;;23.71;42.24;100945.13;4975533;28;20171;-94
2023/08/07 13:22:19;;;;;;;2.97;0.75;;;;;;;23.42;43.69;100949.00;4976650;28;20385;-94
2023/08/07 13:24:44;;;;;;;2.22;0.65;;;;;;;23.22;44.34;100945.81;4976318;28;20027;-94
2023/08/07 13:27:09;;;;;;;2.25;0.82;;;;;;;23.43;45.14;100942.72;4977541;28;20041;-95
2023/08/07 13:29:35;;;;;;;1.80;0.50;;;;;;;23.34;44.95;100943.72;4975198;28;20035;-94
2023/08/07 13:32:03;;;;;;;2.75;0.63;;;;;;;23.38;44.29;100945.03;4975867;28;20034;-95
2023/08/07 13:34:28;;;;;;;2.42;0.50;;;;;;;23.50;44.65;100942.94;4976265;28;20035;-95
2023/08/07 13:36:54;;;;;;;4.68;0.73;;;;;;;23.44;45.29;100947.03;4976061;28;20540;-94
2023/08/07 13:39:19;;;;;;;2.33;0.40;;;;;;;23.73;44.83;100951.09;4977182;28;20037;-95
2023/08/07 13:41:44;;;;;;;2.40;0.63;;;;;;;23.20;44.98;100942.50;4975316;28;20500;-94
2023/08/07 13:44:11;;;;;;;6.13;0.80;;;;;;;23.21;45.35;100940.69;4977143;28;20027;-95
2023/08/07 13:46:37;;;;;;;4.53;1.00;;;;;;;23.42;45.36;100946.38;4976315;28;20098;-94
2023/08/07 13:49:02;;;;;;;2.03;0.93;;;;;;;23.20;43.87;100952.22;4976034;28;20038;-94
2023/08/07 13:51:27;;;;;;;5.15;0.70;;;;;;;23.11;43.83;100947.88;4976206;28;20033;-93
2023/08/07 13:53:53;;;;;;;2.65;0.68;;;;;;;22.79;44.43;100939.63;4974981;28;20487;-94
2023/08/07 13:56:18;;;;;;;2.75;0.43;;;;;;;22.46;46.11;100943.88;4977200;28;20034;-94
2023/08/07 13:58:44;;;;;;;3.25;0.52;;;;;;;22.66;45.43;100939.22;4977132;28;20474;-93
2023/08/07 14:01:09;;;;;;;3.00;0.75;;;;;;;22.42;46.86;100945.13;4975073;28;20382;-92
2023/08/07 14:03:34;;;;;;;1.73;0.65;;;;;;;22.67;45.84;100935.59;4977008;28;20038;-94
2023/08/07 14:06:01;;;;;;;2.88;0.93;;;;;;;22.60;46.12;100935.38;4972929;28;20477;-94
2023/08/07 14:08:26;;;;;;;2.20;0.68;;;;;;;22.52;46.33;100940.59;4975592;28;20089;-94
2023/08/07 14:10:51;;;;;;;2.80;0.60;;;;;;;22.56;46.22;100930.63;4976470;28;20469;-95
2023/08/07 14:13:17;;;;;;;2.67;0.73;;;;;;;22.41;46.31;100941.69;4975499;28;20428;-94
2023/08/07 14:15:42;;;;;;;2.17;0.63;;;;;;;22.36;48.20;100935.22;4974875;28;20062;-94
2023/08/07 14:18:08;;;;;;;2.40;0.68;;;;;;;22.36;46.03;100948.38;4974961;28;20027;-94
2023/08/07 14:20:35;;;;;;;2.85;0.60;;;;;;;22.48;45.27;100943.69;4974860;28;20109;-95
2023/08/07 14:23:00;;;;;;;3.13;0.70;;;;;;;22.49;46.00;100948.00;4975515;28;20030;-94
2023/08/07 14:25:25;;;;;;;3.30;0.73;;;;;;;22.11;46.52;100940.25;4974642;28;20026;-96